createdAt,value
2023-08-17T00:00:23.810Z,1.88
2023-08-17T00:02:50.615Z,1.80
2023-08-17T00:05:17.177Z,1.48
2023-08-17T00:07:43.665Z,1.92
2023-08-17T00:10:10.629Z,2.03
2023-08-17T00:12:37.125Z,1.90
2023-08-17T00:15:04.021Z,2.63
2023-08-17T00:17:31.310Z,2.10
2023-08-17T00:19:57.977Z,1.70
2023-08-17T00:22:24.616Z,1.60
2023-08-17T00:24:51.126Z,1.90
2023-08-17T00:27:17.648Z,1.45
2023-08-17T00:29:44.362Z,1.50
2023-08-17T00:32:10.886Z,2.10
2023-08-17T00:34:37.337Z,2.05
2023-08-17T00:37:04.214Z,1.95
2023-08-17T00:39:30.703Z,2.05
2023-08-17T00:41:57.203Z,2.10
2023-08-17T00:44:23.713Z,1.52
2023-08-17T00:46:50.276Z,2.17
2023-08-17T00:49:16.866Z,2.47
2023-08-17T00:51:43.317Z,1.58
2023-08-17T00:54:11.274Z,1.67
2023-08-17T00:56:38.219Z,1.70
2023-08-17T00:59:05.488Z,1.60
2023-08-17T01:01:32.156Z,3.00
2023-08-17T01:03:58.871Z,2.05
2023-08-17T01:06:25.360Z,2.33
2023-08-17T01:08:51.823Z,4.60
2023-08-17T01:11:37.294Z,2.22
2023-08-17T01:14:11.033Z,2.42
2023-08-17T01:16:47.046Z,2.00
2023-08-17T01:19:18.227Z,1.65
2023-08-17T01:21:51.377Z,2.28
2023-08-17T01:24:17.943Z,2.10
2023-08-17T01:26:44.388Z,2.05
2023-08-17T01:29:10.927Z,2.53
2023-08-17T01:32:06.016Z,2.20
2023-08-17T01:37:07.298Z,2.10
2023-08-17T01:39:45.280Z,2.10
2023-08-17T01:42:14.073Z,1.92
2023-08-17T01:44:41.036Z,1.60
2023-08-17T01:47:07.643Z,1.90
2023-08-17T01:49:34.235Z,2.28
2023-08-17T01:52:01.977Z,2.10
2023-08-17T01:54:28.544Z,2.30
2023-08-17T01:56:55.104Z,1.63
2023-08-17T01:59:21.657Z,1.92
2023-08-17T02:01:48.141Z,2.42
2023-08-17T02:04:15.618Z,1.63
2023-08-17T02:06:42.113Z,1.80
2023-08-17T02:09:08.562Z,2.30
2023-08-17T02:11:35.045Z,2.28
2023-08-17T02:14:01.508Z,2.38
2023-08-17T02:16:28.013Z,2.50
2023-08-17T02:18:54.570Z,2.90
2023-08-17T02:21:21.087Z,3.00
2023-08-17T02:23:47.660Z,3.00
2023-08-17T02:26:14.200Z,2.60
2023-08-17T02:28:40.722Z,2.35
2023-08-17T02:31:07.639Z,2.75
2023-08-17T02:33:34.791Z,2.75
2023-08-17T02:36:02.500Z,2.53
2023-08-17T02:38:29.096Z,2.20
2023-08-17T02:40:55.611Z,2.80
2023-08-17T02:43:22.108Z,2.03
2023-08-17T02:45:48.595Z,2.20
2023-08-17T02:48:15.046Z,2.35
2023-08-17T02:50:41.580Z,2.53
2023-08-17T02:53:08.075Z,2.20
2023-08-17T02:55:34.796Z,1.80
2023-08-17T02:58:01.282Z,1.70
2023-08-17T03:00:27.798Z,1.75
2023-08-17T03:02:55.115Z,2.88
2023-08-17T03:05:21.750Z,2.33
2023-08-17T03:07:48.209Z,2.08
2023-08-17T03:10:14.974Z,3.25
2023-08-17T03:12:41.508Z,2.15
2023-08-17T03:15:08.148Z,1.95
2023-08-17T03:17:34.743Z,3.13
2023-08-17T03:20:01.312Z,1.90
2023-08-17T03:22:28.065Z,2.10
2023-08-17T03:24:56.618Z,1.90
2023-08-17T03:27:23.575Z,1.75
2023-08-17T03:29:50.287Z,2.40
2023-08-17T03:32:16.779Z,2.10
2023-08-17T03:34:43.298Z,1.80
2023-08-17T03:37:09.741Z,1.60
2023-08-17T03:39:36.287Z,1.52
2023-08-17T03:42:02.972Z,1.30
2023-08-17T03:44:29.413Z,1.30
2023-08-17T03:46:55.919Z,1.50
2023-08-17T03:49:22.784Z,1.83
2023-08-17T03:51:49.253Z,1.65
2023-08-17T03:54:15.734Z,2.40
2023-08-17T03:56:42.210Z,2.03
2023-08-17T03:59:08.672Z,1.65
2023-08-17T04:01:35.172Z,1.77
2023-08-17T04:04:01.641Z,1.70
2023-08-17T04:06:28.103Z,1.70
2023-08-17T04:08:54.575Z,1.98
2023-08-17T04:11:21.020Z,1.95
2023-08-17T04:13:47.471Z,2.33
2023-08-17T04:16:14.034Z,2.58
2023-08-17T04:18:40.659Z,2.00
2023-08-17T04:21:07.227Z,2.28
2023-08-17T04:23:33.694Z,2.38
2023-08-17T04:26:00.184Z,1.85
2023-08-17T04:28:26.681Z,2.70
2023-08-17T04:30:53.181Z,3.13
2023-08-17T04:33:19.728Z,3.25
2023-08-17T04:35:49.356Z,1.98
2023-08-17T04:38:15.841Z,4.15
2023-08-17T04:40:42.650Z,2.50
2023-08-17T04:43:10.992Z,3.70
2023-08-17T04:45:38.178Z,3.60
2023-08-17T04:48:05.621Z,3.67
2023-08-17T04:50:32.111Z,3.05
2023-08-17T04:52:58.668Z,2.85
2023-08-17T04:55:25.177Z,2.83
2023-08-17T04:57:51.604Z,2.72
2023-08-17T05:00:18.750Z,2.40
2023-08-17T05:02:45.457Z,2.83
2023-08-17T05:05:12.059Z,3.50
2023-08-17T05:07:38.554Z,4.47
2023-08-17T05:10:05.287Z,3.28
2023-08-17T05:12:31.815Z,3.00
2023-08-17T05:14:58.320Z,2.92
2023-08-17T05:17:25.057Z,2.33
2023-08-17T05:19:52.619Z,2.83
2023-08-17T05:22:19.205Z,2.38
2023-08-17T05:24:45.680Z,2.30
2023-08-17T05:27:12.227Z,2.28
2023-08-17T05:29:38.799Z,1.98
2023-08-17T05:32:05.730Z,2.40
2023-08-17T05:34:32.317Z,2.78
2023-08-17T05:36:58.933Z,2.63
2023-08-17T05:39:25.793Z,2.53
2023-08-17T05:41:52.396Z,2.65
2023-08-17T05:44:19.154Z,2.67
2023-08-17T05:46:45.765Z,2.60
2023-08-17T05:49:12.292Z,3.25
2023-08-17T05:51:38.856Z,3.15
2023-08-17T05:54:05.612Z,2.78
2023-08-17T05:56:32.544Z,2.80
2023-08-17T05:58:59.060Z,1.92
2023-08-17T06:01:25.578Z,2.10
2023-08-17T06:03:52.100Z,2.20
2023-08-17T06:06:18.572Z,1.88
2023-08-17T06:08:45.170Z,1.65
2023-08-17T06:11:11.650Z,1.35
2023-08-17T06:13:38.154Z,1.80
2023-08-17T06:16:04.905Z,1.27
2023-08-17T06:18:32.030Z,1.60
2023-08-17T06:20:58.491Z,1.42
2023-08-17T06:23:25.206Z,1.70
2023-08-17T06:25:51.942Z,1.75
2023-08-17T06:28:18.458Z,1.20
2023-08-17T06:30:44.945Z,1.70
2023-08-17T06:33:11.409Z,1.05
2023-08-17T06:35:37.896Z,1.48
2023-08-17T06:38:04.576Z,1.20
2023-08-17T06:40:31.144Z,1.98
2023-08-17T06:42:57.652Z,1.40
2023-08-17T06:45:24.200Z,1.05
2023-08-17T06:47:50.866Z,1.80
2023-08-17T06:50:17.483Z,1.10
2023-08-17T06:52:44.109Z,1.40
2023-08-17T06:55:11.594Z,1.20
2023-08-17T06:57:38.162Z,1.23
2023-08-17T07:00:08.722Z,1.00
2023-08-17T07:02:50.967Z,0.88
2023-08-17T07:05:20.457Z,1.00
2023-08-17T07:07:47.103Z,0.90
2023-08-17T07:10:13.592Z,1.38
2023-08-17T07:12:40.771Z,0.88
2023-08-17T07:15:08.634Z,1.15
2023-08-17T07:17:35.605Z,0.80
2023-08-17T07:22:32.081Z,0.90
2023-08-17T07:24:58.733Z,1.08
2023-08-17T07:27:25.776Z,0.93
2023-08-17T07:29:52.648Z,1.15
2023-08-17T07:32:20.108Z,0.73
2023-08-17T07:34:46.608Z,0.85
2023-08-17T07:37:15.689Z,0.90
2023-08-17T07:39:42.927Z,0.90
2023-08-17T07:42:09.802Z,0.70
2023-08-17T07:44:36.737Z,1.13
2023-08-17T07:47:03.380Z,0.90
2023-08-17T07:49:32.557Z,0.60
2023-08-17T07:51:59.461Z,0.80
2023-08-17T07:54:26.042Z,0.95
2023-08-17T07:56:52.568Z,0.93
2023-08-17T07:59:19.012Z,0.73
2023-08-17T08:01:45.607Z,0.60
2023-08-17T08:04:12.259Z,0.80
2023-08-17T08:06:38.785Z,0.88
2023-08-17T08:09:05.470Z,0.90
2023-08-17T08:11:31.981Z,0.70
2023-08-17T08:13:58.769Z,0.63
2023-08-17T08:16:25.325Z,1.02
2023-08-17T08:18:51.774Z,0.93
2023-08-17T08:21:18.285Z,0.80
2023-08-17T08:23:44.682Z,0.77
2023-08-17T08:26:11.192Z,1.15
2023-08-17T08:28:37.729Z,0.52
2023-08-17T08:31:04.906Z,0.85
2023-08-17T08:33:32.069Z,0.90
2023-08-17T08:35:58.530Z,0.80
2023-08-17T08:38:25.490Z,1.83
2023-08-17T08:40:52.356Z,0.70
2023-08-17T08:43:19.213Z,1.13
2023-08-17T08:45:46.846Z,0.98
2023-08-17T08:48:15.410Z,0.90
2023-08-17T08:50:42.602Z,0.80
2023-08-17T08:53:15.775Z,1.13
2023-08-17T08:55:53.063Z,0.83
2023-08-17T08:58:20.224Z,0.98
2023-08-17T09:00:48.600Z,1.02
2023-08-17T09:03:19.319Z,1.20
2023-08-17T09:05:50.842Z,1.02
2023-08-17T09:08:22.355Z,0.80
2023-08-17T09:10:51.864Z,1.00
2023-08-17T09:13:18.441Z,0.90
2023-08-17T09:15:44.965Z,1.02
2023-08-17T09:18:13.748Z,1.00
2023-08-17T09:20:47.293Z,1.10
2023-08-17T09:23:17.944Z,1.05
2023-08-17T09:25:46.275Z,1.10
2023-08-17T09:28:15.686Z,0.90
2023-08-17T09:30:56.482Z,1.30
2023-08-17T09:33:27.827Z,1.40
2023-08-17T09:35:59.461Z,1.05
2023-08-17T09:38:28.437Z,1.63
2023-08-17T09:40:55.733Z,1.40
2023-08-17T09:43:22.432Z,1.08
2023-08-17T09:45:51.086Z,1.05
2023-08-17T09:48:18.839Z,1.15
2023-08-17T09:50:47.240Z,1.02
2023-08-17T09:53:20.264Z,0.95
2023-08-17T09:55:47.546Z,1.08
2023-08-17T09:58:17.581Z,1.00
2023-08-17T10:00:50.446Z,0.90
2023-08-17T10:03:19.540Z,1.27
2023-08-17T10:05:55.688Z,1.00
2023-08-17T10:08:24.212Z,1.00
2023-08-17T10:10:56.610Z,1.25
2023-08-17T10:13:36.235Z,1.20
2023-08-17T10:16:30.189Z,1.13
2023-08-17T10:19:24.057Z,1.60
2023-08-17T10:22:30.567Z,1.40
2023-08-17T10:25:00.414Z,1.20
2023-08-17T10:27:27.901Z,1.70
2023-08-17T10:29:54.992Z,1.58
2023-08-17T10:32:23.370Z,1.05
2023-08-17T10:34:52.215Z,0.90
2023-08-17T10:37:20.201Z,0.90
2023-08-17T10:39:48.100Z,0.80
2023-08-17T10:44:49.173Z,0.80
2023-08-17T10:47:26.009Z,0.60
2023-08-17T10:50:00.646Z,1.05
2023-08-17T10:52:38.408Z,1.00
2023-08-17T10:55:11.110Z,0.80
2023-08-17T10:57:40.045Z,0.93
2023-08-17T11:00:33.054Z,0.70
2023-08-17T11:03:12.340Z,1.02
2023-08-17T11:05:43.419Z,0.80
2023-08-17T11:08:14.877Z,0.60
2023-08-17T11:10:41.569Z,0.85
2023-08-17T11:13:08.479Z,0.82
2023-08-17T11:15:39.045Z,0.80
2023-08-17T11:18:09.910Z,0.77
2023-08-17T11:20:39.357Z,0.90
2023-08-17T11:23:10.129Z,0.70
2023-08-17T11:25:38.512Z,0.80
2023-08-17T11:28:08.141Z,0.88
2023-08-17T11:30:36.755Z,0.90
2023-08-17T11:33:03.735Z,0.60
2023-08-17T11:35:30.197Z,0.80
2023-08-17T11:37:56.626Z,0.90
2023-08-17T11:40:23.444Z,0.90
2023-08-17T11:42:50.247Z,1.42
2023-08-17T11:45:16.910Z,0.90
2023-08-17T11:47:44.586Z,0.85
2023-08-17T11:50:20.579Z,0.90
2023-08-17T11:52:48.368Z,0.80
2023-08-17T11:55:19.064Z,0.93
2023-08-17T11:57:46.080Z,0.82
2023-08-17T12:00:22.669Z,1.30
2023-08-17T12:02:50.396Z,0.80
2023-08-17T12:05:22.868Z,1.13
2023-08-17T12:07:49.437Z,0.80
2023-08-17T12:10:16.154Z,0.77
2023-08-17T12:12:42.775Z,0.93
2023-08-17T12:15:12.889Z,0.90
2023-08-17T12:17:46.373Z,0.88
2023-08-17T12:20:22.345Z,0.70
2023-08-17T12:22:49.093Z,1.00
2023-08-17T12:25:16.369Z,1.13
2023-08-17T12:27:43.090Z,1.10
2023-08-17T12:30:27.959Z,1.30
2023-08-17T12:32:56.008Z,1.23
2023-08-17T12:35:25.559Z,1.00
2023-08-17T12:37:53.922Z,1.05
2023-08-17T12:40:21.268Z,1.30
2023-08-17T12:42:48.361Z,1.10
2023-08-17T12:45:16.167Z,1.05
2023-08-17T12:47:42.978Z,0.88
2023-08-17T12:50:09.864Z,1.20
2023-08-17T12:52:36.557Z,1.00
2023-08-17T12:55:03.264Z,1.50
2023-08-17T12:57:29.786Z,1.17
2023-08-17T12:59:56.293Z,1.13
2023-08-17T13:02:22.859Z,0.90
2023-08-17T13:04:49.402Z,0.93
2023-08-17T13:07:16.890Z,1.30
2023-08-17T13:09:43.411Z,1.13
2023-08-17T13:12:09.893Z,1.10
2023-08-17T13:14:37.056Z,0.95
2023-08-17T13:17:03.793Z,0.80
2023-08-17T13:19:30.366Z,1.00
2023-08-17T13:21:56.874Z,0.85
2023-08-17T13:24:23.373Z,0.95
2023-08-17T13:26:53.799Z,1.10
2023-08-17T13:29:20.963Z,1.30
2023-08-17T13:31:49.131Z,0.85
2023-08-17T13:34:15.798Z,1.10
2023-08-17T13:36:42.522Z,1.20
2023-08-17T13:39:09.052Z,1.00
2023-08-17T13:41:35.605Z,1.08
2023-08-17T13:44:03.608Z,1.08
2023-08-17T13:46:31.256Z,1.02
2023-08-17T13:48:57.777Z,1.10
2023-08-17T13:51:24.238Z,1.15
2023-08-17T13:53:50.739Z,1.20
2023-08-17T13:56:18.304Z,1.40
2023-08-17T13:58:44.770Z,1.60
2023-08-17T14:01:12.805Z,1.40
2023-08-17T14:03:39.504Z,1.17
2023-08-17T14:06:06.150Z,1.25
2023-08-17T14:08:32.584Z,1.40
2023-08-17T14:10:59.067Z,1.45
2023-08-17T14:13:25.536Z,1.83
2023-08-17T14:15:52.119Z,1.65
2023-08-17T14:18:18.878Z,1.65
2023-08-17T14:20:45.458Z,1.42
2023-08-17T14:23:11.956Z,1.05
2023-08-17T14:25:38.442Z,1.23
2023-08-17T14:28:06.507Z,1.17
2023-08-17T14:30:33.044Z,1.33
2023-08-17T14:33:01.588Z,1.90
2023-08-17T14:35:28.990Z,1.50
2023-08-17T14:37:58.780Z,1.70
2023-08-17T14:40:25.459Z,1.73
2023-08-17T14:42:54.625Z,2.30
2023-08-17T14:45:21.422Z,1.52
2023-08-17T14:47:47.930Z,1.60
2023-08-17T14:50:15.192Z,1.48
2023-08-17T14:52:42.180Z,1.77
2023-08-17T14:55:10.220Z,1.50
2023-08-17T14:57:36.969Z,1.83
2023-08-17T15:00:05.211Z,1.58
2023-08-17T15:02:31.914Z,1.42
2023-08-17T15:04:58.429Z,1.85
2023-08-17T15:07:25.464Z,1.65
2023-08-17T15:09:53.956Z,1.42
2023-08-17T15:12:22.741Z,1.48
2023-08-17T15:14:50.694Z,1.73
2023-08-17T15:17:17.086Z,1.50
2023-08-17T15:19:43.585Z,1.70
2023-08-17T15:22:15.534Z,1.75
2023-08-17T15:24:44.440Z,2.05
2023-08-17T15:27:11.143Z,2.28
2023-08-17T15:29:37.613Z,2.10
2023-08-17T15:32:04.188Z,1.70
2023-08-17T15:34:30.710Z,1.77
2023-08-17T15:36:57.217Z,1.95
2023-08-17T15:39:23.727Z,1.65
2023-08-17T15:41:50.239Z,2.22
2023-08-17T15:44:16.914Z,1.55
2023-08-17T15:46:43.485Z,2.38
2023-08-17T15:49:10.066Z,2.20
2023-08-17T15:51:36.642Z,2.08
2023-08-17T15:54:03.238Z,1.98
2023-08-17T15:56:29.787Z,1.90
2023-08-17T15:58:56.328Z,2.08
2023-08-17T16:01:22.871Z,2.00
2023-08-17T16:03:49.567Z,2.38
2023-08-17T16:06:16.158Z,1.85
2023-08-17T16:08:49.094Z,2.22
2023-08-17T16:11:16.086Z,2.60
2023-08-17T16:16:12.245Z,2.17
2023-08-17T16:18:38.735Z,2.00
2023-08-17T16:21:13.854Z,1.83
2023-08-17T16:23:42.364Z,2.33
2023-08-17T16:26:09.177Z,2.00
2023-08-17T16:28:35.655Z,2.10
2023-08-17T16:31:05.258Z,2.13
2023-08-17T16:33:32.598Z,2.45
2023-08-17T16:35:59.554Z,2.00
2023-08-17T16:38:26.104Z,2.00
2023-08-17T16:40:52.686Z,1.75
2023-08-17T16:43:21.203Z,1.50
2023-08-17T16:45:47.987Z,2.22
2023-08-17T16:48:14.733Z,1.95
2023-08-17T16:50:41.292Z,2.00
2023-08-17T16:53:07.847Z,1.75
2023-08-17T16:55:35.156Z,1.85
2023-08-17T16:58:02.152Z,1.75
2023-08-17T17:00:28.853Z,2.78
2023-08-17T17:02:55.370Z,2.25
2023-08-17T17:05:21.953Z,2.22
2023-08-17T17:07:48.543Z,2.10
2023-08-17T17:10:16.474Z,2.53
2023-08-17T17:12:42.971Z,1.95
2023-08-17T17:15:09.940Z,2.15
2023-08-17T17:17:36.565Z,1.90
2023-08-17T17:20:04.660Z,1.75
2023-08-17T17:22:31.213Z,1.92
2023-08-17T17:24:57.673Z,2.28
2023-08-17T17:27:24.202Z,2.00
2023-08-17T17:29:50.671Z,2.40
2023-08-17T17:32:17.119Z,2.00
2023-08-17T17:34:43.587Z,2.20
2023-08-17T17:37:10.074Z,2.50
2023-08-17T17:39:36.602Z,2.60
2023-08-17T17:42:03.205Z,2.47
2023-08-17T17:44:29.802Z,3.17
2023-08-17T17:46:56.350Z,2.80
2023-08-17T17:49:23.177Z,2.30
2023-08-17T17:51:49.945Z,2.55
2023-08-17T17:54:16.513Z,2.00
2023-08-17T17:56:44.918Z,2.78
2023-08-17T17:59:11.912Z,2.63
2023-08-17T18:01:38.998Z,2.40
2023-08-17T18:04:05.916Z,2.25
2023-08-17T18:06:33.728Z,1.92
2023-08-17T18:09:00.217Z,2.72
2023-08-17T18:11:26.988Z,2.35
2023-08-17T18:13:53.644Z,2.38
2023-08-17T18:16:20.275Z,3.65
2023-08-17T18:18:47.006Z,4.75
2023-08-17T18:21:13.481Z,2.90
2023-08-17T18:23:39.958Z,2.40
2023-08-17T18:26:06.441Z,3.47
2023-08-17T18:28:33.054Z,3.72
2023-08-17T18:30:59.903Z,3.40
2023-08-17T18:33:26.429Z,2.90
2023-08-17T18:35:54.038Z,3.05
2023-08-17T18:38:23.297Z,3.60
2023-08-17T18:40:52.279Z,4.57
2023-08-17T18:43:20.618Z,5.28
2023-08-17T18:45:47.252Z,4.35
2023-08-17T18:48:13.889Z,3.50
2023-08-17T18:50:40.554Z,4.13
2023-08-17T18:53:08.100Z,2.90
2023-08-17T18:55:34.713Z,3.50
2023-08-17T18:58:01.786Z,4.03
2023-08-17T19:00:28.611Z,3.50
2023-08-17T19:02:55.262Z,3.80
2023-08-17T19:05:22.164Z,4.88
2023-08-17T19:07:49.101Z,4.38
2023-08-17T19:10:16.495Z,4.00
2023-08-17T19:12:43.136Z,3.72
2023-08-17T19:15:10.355Z,3.50
2023-08-17T19:17:37.290Z,3.33
2023-08-17T19:20:04.245Z,3.90
2023-08-17T19:22:30.997Z,4.25
2023-08-17T19:24:57.634Z,5.18
2023-08-17T19:27:24.473Z,4.18
2023-08-17T19:29:51.188Z,3.80
2023-08-17T19:32:17.864Z,3.63
2023-08-17T19:34:44.676Z,3.60
2023-08-17T19:37:11.437Z,4.10
2023-08-17T19:39:38.178Z,4.60
2023-08-17T19:42:05.064Z,3.67
2023-08-17T19:44:31.772Z,3.15
2023-08-17T19:46:58.352Z,2.97
2023-08-17T19:49:28.141Z,3.90
2023-08-17T19:51:55.332Z,3.17
2023-08-17T19:54:21.928Z,3.78
2023-08-17T19:56:49.016Z,3.47
2023-08-17T19:59:15.454Z,3.90
2023-08-17T20:01:41.990Z,4.57
2023-08-17T20:04:11.945Z,4.63
2023-08-17T20:06:38.596Z,3.28
2023-08-17T20:09:05.575Z,4.75
2023-08-17T20:11:32.163Z,4.40
2023-08-17T20:13:58.832Z,3.65
2023-08-17T20:16:25.479Z,4.35
2023-08-17T20:18:52.396Z,3.65
2023-08-17T20:21:19.045Z,4.65
2023-08-17T20:23:45.793Z,4.38
2023-08-17T20:26:12.684Z,4.05
2023-08-17T20:28:40.062Z,3.90
2023-08-17T20:31:07.508Z,3.35
2023-08-17T20:33:34.267Z,3.40
2023-08-17T20:36:00.857Z,3.20
2023-08-17T20:38:27.629Z,4.82
2023-08-17T20:40:54.541Z,3.40
2023-08-17T20:43:21.100Z,5.30
2023-08-17T20:45:47.815Z,4.38
2023-08-17T20:48:14.593Z,4.20
2023-08-17T20:50:43.397Z,3.95
2023-08-17T20:53:09.904Z,3.97
2023-08-17T20:55:39.278Z,4.10
2023-08-17T20:58:06.015Z,5.13
2023-08-17T21:00:33.750Z,3.85
2023-08-17T21:03:00.283Z,4.55
2023-08-17T21:05:28.768Z,4.60
2023-08-17T21:07:56.334Z,5.07
2023-08-17T21:10:24.486Z,4.18
2023-08-17T21:12:51.420Z,5.38
2023-08-17T21:15:17.957Z,3.80
2023-08-17T21:17:45.940Z,4.80
2023-08-17T21:20:12.890Z,4.13
2023-08-17T21:22:51.533Z,3.78
2023-08-17T21:25:19.247Z,3.88
2023-08-17T21:27:45.809Z,4.78
2023-08-17T21:30:12.404Z,5.30
2023-08-17T21:32:38.966Z,6.68
2023-08-17T21:35:06.373Z,6.25
2023-08-17T21:37:33.104Z,5.72
2023-08-17T21:39:59.688Z,5.53
2023-08-17T21:42:26.331Z,5.57
2023-08-17T21:44:52.826Z,5.05
2023-08-17T21:47:19.460Z,4.70
2023-08-17T21:49:48.034Z,3.80
2023-08-17T21:52:16.467Z,3.35
2023-08-17T21:54:43.191Z,4.00
2023-08-17T21:57:09.684Z,3.40
2023-08-17T21:59:36.148Z,3.13
2023-08-17T22:02:03.403Z,3.85
2023-08-17T22:04:33.396Z,3.15
2023-08-17T22:07:02.536Z,3.58
2023-08-17T22:09:29.760Z,4.22
2023-08-17T22:11:57.063Z,3.20
2023-08-17T22:14:23.655Z,3.20
2023-08-17T22:16:50.476Z,2.92
2023-08-17T22:19:17.359Z,2.67
2023-08-17T22:21:43.852Z,2.70
2023-08-17T22:24:10.895Z,2.78
2023-08-17T22:26:37.497Z,2.83
2023-08-17T22:29:04.554Z,2.50
2023-08-17T22:31:32.015Z,2.20
2023-08-17T22:33:58.495Z,1.98
2023-08-17T22:36:25.254Z,1.83
2023-08-17T22:38:51.933Z,2.10
2023-08-17T22:41:18.385Z,2.13
2023-08-17T22:43:44.906Z,2.08
2023-08-17T22:46:11.571Z,2.15
2023-08-17T22:48:38.109Z,2.47
2023-08-17T22:51:04.568Z,2.35
2023-08-17T22:53:31.099Z,2.13
2023-08-17T22:55:57.823Z,1.98
2023-08-17T22:58:24.267Z,1.65
2023-08-17T23:00:50.773Z,2.00
2023-08-17T23:03:17.389Z,1.50
2023-08-17T23:05:44.667Z,1.40
2023-08-17T23:08:11.174Z,1.83
2023-08-17T23:10:37.941Z,1.98
2023-08-17T23:13:04.608Z,1.80
2023-08-17T23:15:31.090Z,1.73
2023-08-17T23:17:57.604Z,1.20
2023-08-17T23:20:24.146Z,1.67
2023-08-17T23:22:50.642Z,1.05
2023-08-17T23:25:17.396Z,1.42
2023-08-17T23:27:43.992Z,1.20
2023-08-17T23:30:11.323Z,1.00
2023-08-17T23:32:38.118Z,1.25
2023-08-17T23:35:05.290Z,1.55
2023-08-17T23:37:32.073Z,1.20
2023-08-17T23:39:58.742Z,1.75
2023-08-17T23:42:25.210Z,1.75
2023-08-17T23:44:51.648Z,1.60
2023-08-17T23:47:18.191Z,1.90
2023-08-17T23:49:45.574Z,1.77
2023-08-17T23:52:12.426Z,1.60
2023-08-17T23:54:39.139Z,1.88
2023-08-17T23:57:05.838Z,1.67
2023-08-17T23:59:32.322Z,1.80
